Share

Alberta, MN

11:39 AM CDT on April 23, 2014 (GMT -0500)
Morris Municipal (KMOX) Elev 1129 ft | 45.57 °N, 95.97 °W | Change Station
Active Advisory: Wind Advisory

Current weather conditions updated 8 minutes ago

Light Rain
Light Rain
41 °F
Feels Like 30 °F
N
29
Wind Variable Wind from SE
Gusts 32 mph
Sunrise 6:24 AM
Sunset 8:20 PM
Moon Waning Crescent

Today is forecast to be Much Cooler than yesterday. Windy, chance of showers.

Pressure 29.90 in
Visibility 10.0 miles
Clouds Scattered Clouds 3900 ft
Mostly Cloudy 5000 ft
Windchill 30 °F
Dew Point 37 °F
Humidity 87%
Rainfall 0.86 in
Snow Depth Not available.
UV 4 out of 16
Pollen 8.50 out of 12
Air Quality Not available.
Flu Activity Sporadic
METAR KMOX 231631Z AUTO 14025G28KT 10SM -RA SCT039 BKN050 05/03 A2990 RMK AO2 P0001 LTG DSNT NW

More Conditions Fewer Conditions

Pressure 29.90 in
Visibility 10.0 miles
Clouds Scattered Clouds 3900 ft
Mostly Cloudy 5000 ft
Windchill 30 °F
Dew Point 37 °F
Humidity 87%
Rainfall 0.86 in
Snow Depth Not available.
UV 4 out of 16
Pollen 8.50 out of 12
Air Quality Not available.
Flu Activity Sporadic
METAR KMOX 231631Z AUTO 14025G28KT 10SM -RA SCT039 BKN050 05/03 A2990 RMK AO2 P0001 LTG DSNT NW

More Conditions Fewer Conditions

10-Day Weather Forecast

Almanac

Astronomy

Apr. 23, 2014 Rise Set
Actual Time 6:24 AM CDT 8:20 PM CDT
Civil Twilight 5:53 AM CDT 8:52 PM CDT
Nautical Twilight 5:14 AM CDT 9:32 PM CDT
Astronomical Twilight 4:31 AM CDT 10:15 PM CDT
Moon 3:15 AM CDT 2:13 PM CDT
Length of Visible Light 14h 59m
Length of Day
13h 56m
Tomorrow will be 2m 56s longer.
Waning Crescent, 35% of the Moon is Illuminated
Today
Waning Crescent
Apr 29
New
May 6
First Quarter
May 14
Full
May 21
Last Quarter

Today's Extremes

State Highs State Lows

Community

  • Stunning Sunrise
    Stunning Sunrise
  • spring flowers
    spring flowers
  • Earth Day Spectrum Ove' Blue
    Earth Day Spectrum Ove' Blue
  • BARN B&W
    BARN B&W
  • April Sunset
    April Sunset

WunderPhotos

Upload Photos

1,704,329 photos uploaded!

WunderBlogs® & News

Nearby

Snow Depth

Station Depth Elevation
No new snow has been reported.

Coastal Water Temperatures

Place Temperature
No Stations Reporting

Earthquake Activity

City Distance Mag. Time & Date
No recent earthquake activity has been reported nearby.
Minimum magnitude displayed is 2.5.

Nearby Weather Stations

Station Location Temp. Windchill Dew Point Humidity Wind Precip. Elev Updated Type
stevens twsp, Chokio, MN 41.5 °F 33 °F 39 °F 92% ESE  at  17.0 mph 0.10 in / hr 1131 ft 11:35 AM CDT Normal
RAWS BIG STONE NWR MN, Odessa, MN 44 °F 37 °F 39 °F 84% SE  at  14 mph 0.01 in / hr 877 ft 10:51 AM CDT MADIS
Hoffman MN, Hoffman, MN 40.6 °F 32 °F 40 °F 98% SE  at  18.3 mph 0.02 in / hr 1240 ft 11:37 AM CDT Normal

Show More Stations Show Fewer Stations

What do you think?

We're not finished. Please let us know what you like, what you don't like, and what you are still missing.